sensor_id;sensor_type;location;lat;lon;timestamp;P1;durP1;ratioP1;P2;durP2;ratioP2
8663;SDS011;4369;47.842;13.096;2022-08-19T00:02:10;8.60;;;7.60;;
8663;SDS011;4369;47.842;13.096;2022-08-19T00:04:37;7.43;;;6.83;;
8663;SDS011;4369;47.842;13.096;2022-08-19T00:07:05;8.43;;;7.63;;
8663;SDS011;4369;47.842;13.096;2022-08-19T00:09:33;8.47;;;7.67;;
8663;SDS011;4369;47.842;13.096;2022-08-19T00:12:01;7.63;;;6.83;;
8663;SDS011;4369;47.842;13.096;2022-08-19T00:14:29;8.77;;;7.97;;
8663;SDS011;4369;47.842;13.096;2022-08-19T00:16:56;8.57;;;7.77;;
8663;SDS011;4369;47.842;13.096;2022-08-19T00:19:23;8.10;;;7.40;;
8663;SDS011;4369;47.842;13.096;2022-08-19T00:21:50;8.60;;;7.80;;
8663;SDS011;4369;47.842;13.096;2022-08-19T00:24:18;11.30;;;10.10;;
8663;SDS011;4369;47.842;13.096;2022-08-19T00:26:46;10.40;;;9.40;;
8663;SDS011;4369;47.842;13.096;2022-08-19T00:29:15;11.23;;;10.07;;
8663;SDS011;4369;47.842;13.096;2022-08-19T00:31:43;11.43;;;10.37;;
8663;SDS011;4369;47.842;13.096;2022-08-19T00:34:11;10.03;;;9.07;;
8663;SDS011;4369;47.842;13.096;2022-08-19T00:36:39;11.40;;;10.33;;
8663;SDS011;4369;47.842;13.096;2022-08-19T00:39:07;14.17;;;10.63;;
8663;SDS011;4369;47.842;13.096;2022-08-19T00:41:34;11.03;;;9.93;;
8663;SDS011;4369;47.842;13.096;2022-08-19T00:44:04;12.90;;;11.60;;
8663;SDS011;4369;47.842;13.096;2022-08-19T00:46:34;12.50;;;11.30;;
8663;SDS011;4369;47.842;13.096;2022-08-19T00:49:10;11.07;;;9.93;;
8663;SDS011;4369;47.842;13.096;2022-08-19T00:51:47;13.40;;;12.00;;
8663;SDS011;4369;47.842;13.096;2022-08-19T00:54:19;14.07;;;12.27;;
8663;SDS011;4369;47.842;13.096;2022-08-19T00:56:47;15.10;;;13.27;;
8663;SDS011;4369;47.842;13.096;2022-08-19T00:59:16;12.70;;;11.40;;
8663;SDS011;4369;47.842;13.096;2022-08-19T01:01:46;10.30;;;9.30;;
8663;SDS011;4369;47.842;13.096;2022-08-19T01:04:13;12.63;;;11.43;;
8663;SDS011;4369;47.842;13.096;2022-08-19T01:06:40;13.03;;;11.83;;
8663;SDS011;4369;47.842;13.096;2022-08-19T01:09:07;13.03;;;11.73;;
8663;SDS011;4369;47.842;13.096;2022-08-19T01:11:35;13.70;;;12.30;;
8663;SDS011;4369;47.842;13.096;2022-08-19T01:14:11;14.17;;;12.80;;
8663;SDS011;4369;47.842;13.096;2022-08-19T01:16:38;13.17;;;11.80;;
8663;SDS011;4369;47.842;13.096;2022-08-19T01:19:11;13.40;;;12.00;;
8663;SDS011;4369;47.842;13.096;2022-08-19T01:21:55;13.60;;;12.30;;
8663;SDS011;4369;47.842;13.096;2022-08-19T01:24:27;15.10;;;12.83;;
8663;SDS011;4369;47.842;13.096;2022-08-19T01:26:55;14.80;;;12.43;;
8663;SDS011;4369;47.842;13.096;2022-08-19T01:29:23;12.03;;;10.83;;
8663;SDS011;4369;47.842;13.096;2022-08-19T01:31:50;15.57;;;11.80;;
8663;SDS011;4369;47.842;13.096;2022-08-19T01:34:17;12.73;;;11.53;;
8663;SDS011;4369;47.842;13.096;2022-08-19T01:36:45;11.23;;;9.97;;
8663;SDS011;4369;47.842;13.096;2022-08-19T01:39:15;10.17;;;9.17;;
8663;SDS011;4369;47.842;13.096;2022-08-19T01:41:47;14.27;;;11.87;;
8663;SDS011;4369;47.842;13.096;2022-08-19T01:44:14;14.87;;;12.83;;
8663;SDS011;4369;47.842;13.096;2022-08-19T01:46:41;12.03;;;10.60;;
8663;SDS011;4369;47.842;13.096;2022-08-19T01:49:09;13.33;;;12.03;;
8663;SDS011;4369;47.842;13.096;2022-08-19T01:51:37;12.30;;;11.20;;
8663;SDS011;4369;47.842;13.096;2022-08-19T01:54:04;12.97;;;11.00;;
8663;SDS011;4369;47.842;13.096;2022-08-19T01:56:31;13.07;;;11.77;;
8663;SDS011;4369;47.842;13.096;2022-08-19T01:59:00;12.30;;;11.10;;
8663;SDS011;4369;47.842;13.096;2022-08-19T02:01:30;12.23;;;11.03;;
8663;SDS011;4369;47.842;13.096;2022-08-19T02:03:57;10.93;;;9.83;;
8663;SDS011;4369;47.842;13.096;2022-08-19T02:06:25;12.77;;;11.53;;
8663;SDS011;4369;47.842;13.096;2022-08-19T02:08:52;13.97;;;11.97;;
8663;SDS011;4369;47.842;13.096;2022-08-19T02:11:20;13.00;;;11.07;;
8663;SDS011;4369;47.842;13.096;2022-08-19T02:13:51;12.30;;;11.00;;
8663;SDS011;4369;47.842;13.096;2022-08-19T02:16:20;12.00;;;10.13;;
8663;SDS011;4369;47.842;13.096;2022-08-19T02:18:47;12.90;;;11.53;;
8663;SDS011;4369;47.842;13.096;2022-08-19T02:21:14;14.03;;;12.63;;
8663;SDS011;4369;47.842;13.096;2022-08-19T02:23:42;13.17;;;11.80;;
8663;SDS011;4369;47.842;13.096;2022-08-19T02:26:09;12.00;;;10.90;;
8663;SDS011;4369;47.842;13.096;2022-08-19T02:28:37;11.13;;;10.03;;
8663;SDS011;4369;47.842;13.096;2022-08-19T02:31:08;14.13;;;12.63;;
8663;SDS011;4369;47.842;13.096;2022-08-19T02:33:38;14.47;;;12.90;;
8663;SDS011;4369;47.842;13.096;2022-08-19T02:36:05;14.90;;;13.50;;
8663;SDS011;4369;47.842;13.096;2022-08-19T02:38:33;14.30;;;12.90;;
8663;SDS011;4369;47.842;13.096;2022-08-19T02:41:03;12.03;;;10.83;;
8663;SDS011;4369;47.842;13.096;2022-08-19T02:43:32;11.83;;;10.60;;
8663;SDS011;4369;47.842;13.096;2022-08-19T02:46:01;12.43;;;11.23;;
8663;SDS011;4369;47.842;13.096;2022-08-19T02:48:29;12.27;;;11.13;;
8663;SDS011;4369;47.842;13.096;2022-08-19T02:50:59;12.20;;;10.90;;
8663;SDS011;4369;47.842;13.096;2022-08-19T02:53:26;13.57;;;12.13;;
8663;SDS011;4369;47.842;13.096;2022-08-19T02:55:53;11.77;;;10.57;;
8663;SDS011;4369;47.842;13.096;2022-08-19T02:58:21;11.37;;;10.33;;
8663;SDS011;4369;47.842;13.096;2022-08-19T03:00:48;12.13;;;10.87;;
8663;SDS011;4369;47.842;13.096;2022-08-19T03:03:17;12.97;;;11.30;;
8663;SDS011;4369;47.842;13.096;2022-08-19T03:05:45;12.60;;;11.50;;
8663;SDS011;4369;47.842;13.096;2022-08-19T03:08:14;12.23;;;11.03;;
8663;SDS011;4369;47.842;13.096;2022-08-19T03:10:42;11.93;;;10.70;;
8663;SDS011;4369;47.842;13.096;2022-08-19T03:16:22;11.60;;;10.50;;
8663;SDS011;4369;47.842;13.096;2022-08-19T03:18:52;12.52;;;11.32;;
8663;SDS011;4369;47.842;13.096;2022-08-19T03:21:20;13.50;;;12.18;;
8663;SDS011;4369;47.842;13.096;2022-08-19T03:23:53;12.30;;;11.00;;
8663;SDS011;4369;47.842;13.096;2022-08-19T03:26:20;11.90;;;10.80;;
8663;SDS011;4369;47.842;13.096;2022-08-19T03:28:47;13.03;;;11.77;;
8663;SDS011;4369;47.842;13.096;2022-08-19T03:31:16;11.67;;;10.50;;
8663;SDS011;4369;47.842;13.096;2022-08-19T03:33:44;11.40;;;10.27;;
8663;SDS011;4369;47.842;13.096;2022-08-19T03:38:40;11.20;;;9.50;;
8663;SDS011;4369;47.842;13.096;2022-08-19T03:41:11;10.50;;;9.50;;
8663;SDS011;4369;47.842;13.096;2022-08-19T03:43:40;9.83;;;8.93;;
8663;SDS011;4369;47.842;13.096;2022-08-19T03:46:10;10.65;;;9.68;;
8663;SDS011;4369;47.842;13.096;2022-08-19T03:48:40;11.07;;;9.97;;
8663;SDS011;4369;47.842;13.096;2022-08-19T03:51:14;9.83;;;9.00;;
8663;SDS011;4369;47.842;13.096;2022-08-19T03:53:43;10.63;;;9.70;;
8663;SDS011;4369;47.842;13.096;2022-08-19T03:56:11;9.80;;;8.90;;
8663;SDS011;4369;47.842;13.096;2022-08-19T03:58:39;11.13;;;10.03;;
8663;SDS011;4369;47.842;13.096;2022-08-19T04:01:07;10.97;;;9.53;;
8663;SDS011;4369;47.842;13.096;2022-08-19T04:03:35;10.67;;;9.47;;
8663;SDS011;4369;47.842;13.096;2022-08-19T04:06:08;10.20;;;9.20;;
8663;SDS011;4369;47.842;13.096;2022-08-19T04:08:36;10.57;;;9.57;;
8663;SDS011;4369;47.842;13.096;2022-08-19T04:11:06;12.83;;;9.70;;
8663;SDS011;4369;47.842;13.096;2022-08-19T04:13:35;12.13;;;9.53;;
8663;SDS011;4369;47.842;13.096;2022-08-19T04:16:02;10.70;;;9.63;;
8663;SDS011;4369;47.842;13.096;2022-08-19T04:18:30;11.53;;;9.97;;
8663;SDS011;4369;47.842;13.096;2022-08-19T04:20:57;10.63;;;9.53;;
8663;SDS011;4369;47.842;13.096;2022-08-19T04:23:25;14.00;;;10.13;;
8663;SDS011;4369;47.842;13.096;2022-08-19T04:25:53;10.13;;;8.60;;
8663;SDS011;4369;47.842;13.096;2022-08-19T04:28:21;10.67;;;8.90;;
8663;SDS011;4369;47.842;13.096;2022-08-19T04:30:50;12.50;;;8.90;;
8663;SDS011;4369;47.842;13.096;2022-08-19T04:33:19;11.37;;;9.70;;
8663;SDS011;4369;47.842;13.096;2022-08-19T04:35:48;9.77;;;8.77;;
8663;SDS011;4369;47.842;13.096;2022-08-19T04:38:17;11.93;;;9.70;;
8663;SDS011;4369;47.842;13.096;2022-08-19T04:40:48;11.40;;;9.50;;
8663;SDS011;4369;47.842;13.096;2022-08-19T04:43:34;13.47;;;9.47;;
8663;SDS011;4369;47.842;13.096;2022-08-19T04:46:05;12.17;;;10.43;;
8663;SDS011;4369;47.842;13.096;2022-08-19T04:48:33;10.87;;;9.77;;
8663;SDS011;4369;47.842;13.096;2022-08-19T04:51:01;13.00;;;10.50;;
8663;SDS011;4369;47.842;13.096;2022-08-19T04:53:33;12.07;;;10.63;;
8663;SDS011;4369;47.842;13.096;2022-08-19T04:56:03;12.10;;;10.57;;
8663;SDS011;4369;47.842;13.096;2022-08-19T04:58:34;14.17;;;10.37;;
8663;SDS011;4369;47.842;13.096;2022-08-19T05:01:01;15.60;;;10.83;;
8663;SDS011;4369;47.842;13.096;2022-08-19T05:03:29;12.77;;;11.00;;
8663;SDS011;4369;47.842;13.096;2022-08-19T05:05:58;11.47;;;10.27;;
8663;SDS011;4369;47.842;13.096;2022-08-19T05:08:31;11.43;;;10.27;;
8663;SDS011;4369;47.842;13.096;2022-08-19T05:10:58;12.83;;;10.50;;
8663;SDS011;4369;47.842;13.096;2022-08-19T05:13:25;12.33;;;11.07;;
8663;SDS011;4369;47.842;13.096;2022-08-19T05:15:53;12.53;;;11.27;;
8663;SDS011;4369;47.842;13.096;2022-08-19T05:18:21;13.83;;;11.50;;
8663;SDS011;4369;47.842;13.096;2022-08-19T05:21:08;11.00;;;9.57;;
8663;SDS011;4369;47.842;13.096;2022-08-19T05:23:54;13.77;;;10.50;;
8663;SDS011;4369;47.842;13.096;2022-08-19T05:26:21;12.30;;;11.00;;
8663;SDS011;4369;47.842;13.096;2022-08-19T05:28:47;13.27;;;11.37;;
8663;SDS011;4369;47.842;13.096;2022-08-19T05:31:14;14.17;;;11.00;;
8663;SDS011;4369;47.842;13.096;2022-08-19T05:33:41;12.40;;;11.10;;
8663;SDS011;4369;47.842;13.096;2022-08-19T05:36:09;11.40;;;10.30;;
8663;SDS011;4369;47.842;13.096;2022-08-19T05:38:36;11.73;;;10.53;;
8663;SDS011;4369;47.842;13.096;2022-08-19T05:41:06;14.40;;;10.40;;
8663;SDS011;4369;47.842;13.096;2022-08-19T05:43:33;15.27;;;13.17;;
8663;SDS011;4369;47.842;13.096;2022-08-19T05:46:00;19.43;;;16.77;;
8663;SDS011;4369;47.842;13.096;2022-08-19T05:48:27;13.27;;;11.73;;
8663;SDS011;4369;47.842;13.096;2022-08-19T05:50:55;10.20;;;9.20;;
8663;SDS011;4369;47.842;13.096;2022-08-19T05:53:24;11.43;;;9.73;;
8663;SDS011;4369;47.842;13.096;2022-08-19T05:55:51;12.63;;;10.90;;
8663;SDS011;4369;47.842;13.096;2022-08-19T05:58:18;13.10;;;11.20;;
8663;SDS011;4369;47.842;13.096;2022-08-19T06:00:45;12.97;;;10.57;;
8663;SDS011;4369;47.842;13.096;2022-08-19T06:03:12;12.77;;;10.77;;
8663;SDS011;4369;47.842;13.096;2022-08-19T06:05:39;13.83;;;11.63;;
8663;SDS011;4369;47.842;13.096;2022-08-19T06:08:06;15.63;;;13.10;;
8663;SDS011;4369;47.842;13.096;2022-08-19T06:10:34;14.00;;;12.53;;
8663;SDS011;4369;47.842;13.096;2022-08-19T06:13:01;16.30;;;14.13;;
8663;SDS011;4369;47.842;13.096;2022-08-19T06:15:29;13.73;;;12.27;;
8663;SDS011;4369;47.842;13.096;2022-08-19T06:17:56;15.17;;;13.13;;
8663;SDS011;4369;47.842;13.096;2022-08-19T06:20:23;18.67;;;13.53;;
8663;SDS011;4369;47.842;13.096;2022-08-19T06:22:50;14.67;;;12.40;;
8663;SDS011;4369;47.842;13.096;2022-08-19T06:25:17;15.00;;;13.47;;
8663;SDS011;4369;47.842;13.096;2022-08-19T06:27:45;15.53;;;13.93;;
8663;SDS011;4369;47.842;13.096;2022-08-19T06:30:12;15.27;;;13.30;;
8663;SDS011;4369;47.842;13.096;2022-08-19T06:32:39;15.07;;;13.43;;
8663;SDS011;4369;47.842;13.096;2022-08-19T06:35:07;14.20;;;12.73;;
8663;SDS011;4369;47.842;13.096;2022-08-19T06:37:34;14.87;;;12.73;;
8663;SDS011;4369;47.842;13.096;2022-08-19T06:40:02;14.23;;;12.53;;
8663;SDS011;4369;47.842;13.096;2022-08-19T06:42:29;14.87;;;12.73;;
8663;SDS011;4369;47.842;13.096;2022-08-19T06:44:58;13.97;;;12.27;;
8663;SDS011;4369;47.842;13.096;2022-08-19T06:47:26;14.53;;;13.00;;
8663;SDS011;4369;47.842;13.096;2022-08-19T06:49:53;14.87;;;12.63;;
8663;SDS011;4369;47.842;13.096;2022-08-19T06:52:24;13.70;;;12.30;;
8663;SDS011;4369;47.842;13.096;2022-08-19T06:54:50;13.03;;;11.70;;
8663;SDS011;4369;47.842;13.096;2022-08-19T06:57:17;13.30;;;11.83;;
8663;SDS011;4369;47.842;13.096;2022-08-19T06:59:44;12.70;;;11.40;;
8663;SDS011;4369;47.842;13.096;2022-08-19T07:02:12;14.13;;;12.73;;
8663;SDS011;4369;47.842;13.096;2022-08-19T07:04:39;13.73;;;12.33;;
8663;SDS011;4369;47.842;13.096;2022-08-19T07:07:07;12.90;;;11.60;;
8663;SDS011;4369;47.842;13.096;2022-08-19T07:09:37;11.50;;;10.37;;
8663;SDS011;4369;47.842;13.096;2022-08-19T07:12:07;11.00;;;10.00;;
8663;SDS011;4369;47.842;13.096;2022-08-19T07:14:38;10.10;;;9.13;;
8663;SDS011;4369;47.842;13.096;2022-08-19T07:17:06;9.77;;;8.87;;
8663;SDS011;4369;47.842;13.096;2022-08-19T07:19:39;9.53;;;8.63;;
8663;SDS011;4369;47.842;13.096;2022-08-19T07:22:08;9.60;;;8.70;;
8663;SDS011;4369;47.842;13.096;2022-08-19T07:24:35;9.53;;;8.60;;
8663;SDS011;4369;47.842;13.096;2022-08-19T07:27:04;8.77;;;7.97;;
8663;SDS011;4369;47.842;13.096;2022-08-19T07:29:33;8.67;;;7.80;;
8663;SDS011;4369;47.842;13.096;2022-08-19T07:32:01;9.47;;;8.57;;
8663;SDS011;4369;47.842;13.096;2022-08-19T07:34:30;11.63;;;9.67;;
8663;SDS011;4369;47.842;13.096;2022-08-19T07:37:00;9.47;;;8.57;;
8663;SDS011;4369;47.842;13.096;2022-08-19T07:39:29;10.10;;;9.20;;
8663;SDS011;4369;47.842;13.096;2022-08-19T07:41:59;10.60;;;9.57;;
8663;SDS011;4369;47.842;13.096;2022-08-19T07:44:27;10.23;;;8.63;;
8663;SDS011;4369;47.842;13.096;2022-08-19T07:46:55;10.30;;;9.03;;
8663;SDS011;4369;47.842;13.096;2022-08-19T07:49:25;10.53;;;8.33;;
8663;SDS011;4369;47.842;13.096;2022-08-19T07:51:53;8.83;;;7.93;;
8663;SDS011;4369;47.842;13.096;2022-08-19T07:54:24;11.17;;;9.93;;
8663;SDS011;4369;47.842;13.096;2022-08-19T07:56:52;9.93;;;9.03;;
8663;SDS011;4369;47.842;13.096;2022-08-19T07:59:19;10.97;;;9.87;;
8663;SDS011;4369;47.842;13.096;2022-08-19T08:01:47;9.80;;;8.90;;
8663;SDS011;4369;47.842;13.096;2022-08-19T08:04:15;9.87;;;8.17;;
8663;SDS011;4369;47.842;13.096;2022-08-19T08:07:00;9.70;;;8.30;;
8663;SDS011;4369;47.842;13.096;2022-08-19T08:09:46;9.83;;;8.90;;
8663;SDS011;4369;47.842;13.096;2022-08-19T08:12:15;8.83;;;8.00;;
8663;SDS011;4369;47.842;13.096;2022-08-19T08:14:45;9.83;;;8.67;;
8663;SDS011;4369;47.842;13.096;2022-08-19T08:17:15;10.20;;;9.20;;
8663;SDS011;4369;47.842;13.096;2022-08-19T08:19:43;10.00;;;9.00;;
8663;SDS011;4369;47.842;13.096;2022-08-19T08:22:11;9.33;;;8.43;;
8663;SDS011;4369;47.842;13.096;2022-08-19T08:25:05;11.10;;;9.70;;
8663;SDS011;4369;47.842;13.096;2022-08-19T08:27:35;9.77;;;8.90;;
8663;SDS011;4369;47.842;13.096;2022-08-19T08:30:04;9.57;;;8.70;;
8663;SDS011;4369;47.842;13.096;2022-08-19T08:32:34;9.67;;;8.53;;
8663;SDS011;4369;47.842;13.096;2022-08-19T08:35:01;11.40;;;9.60;;
8663;SDS011;4369;47.842;13.096;2022-08-19T08:37:28;7.63;;;6.93;;
8663;SDS011;4369;47.842;13.096;2022-08-19T08:39:55;8.50;;;7.17;;
8663;SDS011;4369;47.842;13.096;2022-08-19T08:42:24;9.27;;;8.03;;
8663;SDS011;4369;47.842;13.096;2022-08-19T08:44:58;9.60;;;8.20;;
8663;SDS011;4369;47.842;13.096;2022-08-19T08:47:27;8.90;;;8.10;;
8663;SDS011;4369;47.842;13.096;2022-08-19T08:49:58;9.50;;;8.60;;
8663;SDS011;4369;47.842;13.096;2022-08-19T08:52:30;10.73;;;9.67;;
8663;SDS011;4369;47.842;13.096;2022-08-19T08:55:00;10.70;;;9.60;;
8663;SDS011;4369;47.842;13.096;2022-08-19T08:57:35;10.90;;;9.80;;
8663;SDS011;4369;47.842;13.096;2022-08-19T09:00:06;11.63;;;10.53;;
8663;SDS011;4369;47.842;13.096;2022-08-19T09:02:36;11.83;;;10.73;;
8663;SDS011;4369;47.842;13.096;2022-08-19T09:05:02;11.87;;;10.77;;
8663;SDS011;4369;47.842;13.096;2022-08-19T09:07:34;13.47;;;11.50;;
8663;SDS011;4369;47.842;13.096;2022-08-19T09:10:10;12.40;;;11.13;;
8663;SDS011;4369;47.842;13.096;2022-08-19T09:12:47;12.67;;;11.37;;
8663;SDS011;4369;47.842;13.096;2022-08-19T09:15:28;13.33;;;12.03;;
8663;SDS011;4369;47.842;13.096;2022-08-19T09:17:59;12.77;;;11.57;;
8663;SDS011;4369;47.842;13.096;2022-08-19T09:20:28;12.97;;;11.73;;
8663;SDS011;4369;47.842;13.096;2022-08-19T09:22:56;12.83;;;11.23;;
8663;SDS011;4369;47.842;13.096;2022-08-19T09:25:24;13.00;;;11.80;;
8663;SDS011;4369;47.842;13.096;2022-08-19T09:27:53;13.10;;;11.90;;
8663;SDS011;4369;47.842;13.096;2022-08-19T09:30:23;13.60;;;12.27;;
8663;SDS011;4369;47.842;13.096;2022-08-19T09:32:51;13.03;;;11.70;;
8663;SDS011;4369;47.842;13.096;2022-08-19T09:35:19;13.17;;;11.90;;
8663;SDS011;4369;47.842;13.096;2022-08-19T09:37:47;13.17;;;11.87;;
8663;SDS011;4369;47.842;13.096;2022-08-19T09:40:15;11.60;;;10.50;;
8663;SDS011;4369;47.842;13.096;2022-08-19T09:42:43;10.57;;;9.57;;
8663;SDS011;4369;47.842;13.096;2022-08-19T09:45:13;12.17;;;10.97;;
8663;SDS011;4369;47.842;13.096;2022-08-19T09:47:40;12.53;;;11.23;;
8663;SDS011;4369;47.842;13.096;2022-08-19T09:50:08;13.47;;;12.17;;
8663;SDS011;4369;47.842;13.096;2022-08-19T09:52:37;12.47;;;11.27;;
8663;SDS011;4369;47.842;13.096;2022-08-19T09:55:08;14.10;;;12.60;;
8663;SDS011;4369;47.842;13.096;2022-08-19T09:57:36;14.20;;;12.70;;
8663;SDS011;4369;47.842;13.096;2022-08-19T10:00:05;15.07;;;13.07;;
8663;SDS011;4369;47.842;13.096;2022-08-19T10:02:35;13.07;;;11.77;;
8663;SDS011;4369;47.842;13.096;2022-08-19T10:05:02;12.27;;;10.97;;
8663;SDS011;4369;47.842;13.096;2022-08-19T10:07:47;13.03;;;11.73;;
8663;SDS011;4369;47.842;13.096;2022-08-19T10:10:15;12.37;;;10.67;;
8663;SDS011;4369;47.842;13.096;2022-08-19T10:12:42;12.80;;;11.60;;
8663;SDS011;4369;47.842;13.096;2022-08-19T10:15:11;12.53;;;10.73;;
8663;SDS011;4369;47.842;13.096;2022-08-19T10:17:39;12.87;;;11.63;;
8663;SDS011;4369;47.842;13.096;2022-08-19T10:20:06;12.37;;;11.17;;
8663;SDS011;4369;47.842;13.096;2022-08-19T10:22:34;13.13;;;11.83;;
8663;SDS011;4369;47.842;13.096;2022-08-19T10:25:02;12.50;;;11.20;;
8663;SDS011;4369;47.842;13.096;2022-08-19T10:27:31;12.83;;;11.57;;
8663;SDS011;4369;47.842;13.096;2022-08-19T10:29:58;14.73;;;13.33;;
8663;SDS011;4369;47.842;13.096;2022-08-19T10:32:25;14.03;;;12.73;;
8663;SDS011;4369;47.842;13.096;2022-08-19T10:34:53;15.27;;;13.17;;
8663;SDS011;4369;47.842;13.096;2022-08-19T10:37:22;13.60;;;12.20;;
8663;SDS011;4369;47.842;13.096;2022-08-19T10:39:49;15.00;;;13.40;;
8663;SDS011;4369;47.842;13.096;2022-08-19T10:42:17;14.20;;;12.80;;
8663;SDS011;4369;47.842;13.096;2022-08-19T10:44:48;13.50;;;12.20;;
8663;SDS011;4369;47.842;13.096;2022-08-19T10:47:15;13.93;;;12.57;;
8663;SDS011;4369;47.842;13.096;2022-08-19T10:49:42;14.40;;;12.93;;
8663;SDS011;4369;47.842;13.096;2022-08-19T10:52:28;13.83;;;12.43;;
8663;SDS011;4369;47.842;13.096;2022-08-19T10:55:02;13.20;;;11.90;;
8663;SDS011;4369;47.842;13.096;2022-08-19T10:57:49;12.77;;;11.30;;
8663;SDS011;4369;47.842;13.096;2022-08-19T11:00:17;11.37;;;10.27;;
8663;SDS011;4369;47.842;13.096;2022-08-19T11:02:43;11.80;;;10.60;;
8663;SDS011;4369;47.842;13.096;2022-08-19T11:05:11;10.60;;;9.60;;
8663;SDS011;4369;47.842;13.096;2022-08-19T11:07:41;10.27;;;9.27;;
8663;SDS011;4369;47.842;13.096;2022-08-19T11:10:10;10.97;;;9.97;;
8663;SDS011;4369;47.842;13.096;2022-08-19T11:12:38;11.83;;;10.63;;
8663;SDS011;4369;47.842;13.096;2022-08-19T11:15:07;11.73;;;10.53;;
8663;SDS011;4369;47.842;13.096;2022-08-19T11:17:36;11.67;;;10.57;;
8663;SDS011;4369;47.842;13.096;2022-08-19T11:20:05;11.67;;;10.23;;
8663;SDS011;4369;47.842;13.096;2022-08-19T11:22:33;11.30;;;10.20;;
8663;SDS011;4369;47.842;13.096;2022-08-19T11:25:01;11.43;;;10.40;;
8663;SDS011;4369;47.842;13.096;2022-08-19T11:27:28;11.90;;;10.80;;
8663;SDS011;4369;47.842;13.096;2022-08-19T11:29:55;12.53;;;11.27;;
8663;SDS011;4369;47.842;13.096;2022-08-19T11:32:22;13.20;;;11.90;;
8663;SDS011;4369;47.842;13.096;2022-08-19T11:34:49;12.77;;;11.57;;
8663;SDS011;4369;47.842;13.096;2022-08-19T11:37:16;12.00;;;10.80;;
8663;SDS011;4369;47.842;13.096;2022-08-19T11:39:43;12.13;;;10.83;;
8663;SDS011;4369;47.842;13.096;2022-08-19T11:42:11;13.03;;;11.67;;
8663;SDS011;4369;47.842;13.096;2022-08-19T11:44:55;14.63;;;11.13;;
8663;SDS011;4369;47.842;13.096;2022-08-19T11:47:22;13.33;;;11.93;;
8663;SDS011;4369;47.842;13.096;2022-08-19T11:49:49;12.03;;;10.83;;
8663;SDS011;4369;47.842;13.096;2022-08-19T11:52:18;11.10;;;10.07;;
8663;SDS011;4369;47.842;13.096;2022-08-19T11:54:44;11.70;;;10.67;;
8663;SDS011;4369;47.842;13.096;2022-08-19T11:57:13;11.43;;;10.33;;
8663;SDS011;4369;47.842;13.096;2022-08-19T11:59:41;10.97;;;9.87;;
8663;SDS011;4369;47.842;13.096;2022-08-19T12:02:08;11.27;;;9.77;;
8663;SDS011;4369;47.842;13.096;2022-08-19T12:04:35;10.68;;;9.68;;
8663;SDS011;4369;47.842;13.096;2022-08-19T12:07:02;10.82;;;9.75;;
8663;SDS011;4369;47.842;13.096;2022-08-19T12:09:29;11.13;;;9.95;;
8663;SDS011;4369;47.842;13.096;2022-08-19T12:11:56;10.10;;;9.20;;
8663;SDS011;4369;47.842;13.096;2022-08-19T12:14:25;10.57;;;9.57;;
8663;SDS011;4369;47.842;13.096;2022-08-19T12:16:52;10.70;;;9.70;;
8663;SDS011;4369;47.842;13.096;2022-08-19T12:19:19;8.77;;;7.97;;
8663;SDS011;4369;47.842;13.096;2022-08-19T12:21:46;11.40;;;10.30;;
8663;SDS011;4369;47.842;13.096;2022-08-19T12:24:13;10.80;;;9.77;;
8663;SDS011;4369;47.842;13.096;2022-08-19T12:26:40;10.68;;;9.63;;
8663;SDS011;4369;47.842;13.096;2022-08-19T12:29:07;9.20;;;8.35;;
8663;SDS011;4369;47.842;13.096;2022-08-19T12:31:35;9.13;;;8.32;;
8663;SDS011;4369;47.842;13.096;2022-08-19T12:34:02;10.00;;;9.10;;
8663;SDS011;4369;47.842;13.096;2022-08-19T12:36:29;10.32;;;9.10;;
8663;SDS011;4369;47.842;13.096;2022-08-19T12:38:57;11.45;;;9.32;;
8663;SDS011;4369;47.842;13.096;2022-08-19T12:41:25;7.95;;;7.30;;
8663;SDS011;4369;47.842;13.096;2022-08-19T12:43:52;9.07;;;8.25;;
8663;SDS011;4369;47.842;13.096;2022-08-19T12:46:19;7.60;;;6.93;;
8663;SDS011;4369;47.842;13.096;2022-08-19T12:48:47;9.65;;;8.85;;
8663;SDS011;4369;47.842;13.096;2022-08-19T12:51:16;9.80;;;8.90;;
8663;SDS011;4369;47.842;13.096;2022-08-19T12:53:44;9.80;;;8.90;;
8663;SDS011;4369;47.842;13.096;2022-08-19T12:56:12;8.73;;;7.85;;
8663;SDS011;4369;47.842;13.096;2022-08-19T12:58:39;8.97;;;8.17;;
8663;SDS011;4369;47.842;13.096;2022-08-19T13:01:08;8.52;;;7.75;;
8663;SDS011;4369;47.842;13.096;2022-08-19T13:03:36;9.47;;;8.50;;
8663;SDS011;4369;47.842;13.096;2022-08-19T13:06:05;9.18;;;8.27;;
8663;SDS011;4369;47.842;13.096;2022-08-19T13:08:32;9.23;;;8.23;;
8663;SDS011;4369;47.842;13.096;2022-08-19T13:11:06;7.97;;;7.13;;
8663;SDS011;4369;47.842;13.096;2022-08-19T13:13:35;8.90;;;8.10;;
8663;SDS011;4369;47.842;13.096;2022-08-19T13:16:06;8.13;;;7.43;;
8663;SDS011;4369;47.842;13.096;2022-08-19T13:18:36;8.37;;;7.57;;
8663;SDS011;4369;47.842;13.096;2022-08-19T13:21:05;8.67;;;7.87;;
8663;SDS011;4369;47.842;13.096;2022-08-19T13:23:34;9.17;;;8.37;;
8663;SDS011;4369;47.842;13.096;2022-08-19T13:26:02;9.67;;;8.50;;
8663;SDS011;4369;47.842;13.096;2022-08-19T13:28:31;8.60;;;7.90;;
8663;SDS011;4369;47.842;13.096;2022-08-19T13:31:14;11.30;;;8.53;;
8663;SDS011;4369;47.842;13.096;2022-08-19T13:33:56;9.37;;;8.47;;
8663;SDS011;4369;47.842;13.096;2022-08-19T13:36:24;9.57;;;8.63;;
8663;SDS011;4369;47.842;13.096;2022-08-19T13:38:51;9.73;;;7.93;;
8663;SDS011;4369;47.842;13.096;2022-08-19T13:41:19;10.20;;;9.17;;
8663;SDS011;4369;47.842;13.096;2022-08-19T13:43:45;10.17;;;9.10;;
8663;SDS011;4369;47.842;13.096;2022-08-19T13:46:13;10.13;;;8.47;;
8663;SDS011;4369;47.842;13.096;2022-08-19T13:48:41;10.57;;;8.70;;
8663;SDS011;4369;47.842;13.096;2022-08-19T13:51:08;11.27;;;8.53;;
8663;SDS011;4369;47.842;13.096;2022-08-19T13:53:37;8.73;;;7.93;;
8663;SDS011;4369;47.842;13.096;2022-08-19T13:56:07;9.13;;;8.30;;
8663;SDS011;4369;47.842;13.096;2022-08-19T13:58:35;9.30;;;8.40;;
8663;SDS011;4369;47.842;13.096;2022-08-19T14:01:02;9.77;;;8.83;;
8663;SDS011;4369;47.842;13.096;2022-08-19T14:03:30;10.20;;;9.10;;
8663;SDS011;4369;47.842;13.096;2022-08-19T14:05:58;9.60;;;8.70;;
8663;SDS011;4369;47.842;13.096;2022-08-19T14:08:26;9.18;;;8.23;;
8663;SDS011;4369;47.842;13.096;2022-08-19T14:10:55;10.70;;;8.60;;
8663;SDS011;4369;47.842;13.096;2022-08-19T14:13:22;10.23;;;8.97;;
8663;SDS011;4369;47.842;13.096;2022-08-19T14:15:50;9.87;;;8.90;;
8663;SDS011;4369;47.842;13.096;2022-08-19T14:18:18;9.53;;;8.73;;
8663;SDS011;4369;47.842;13.096;2022-08-19T14:20:45;9.80;;;8.90;;
8663;SDS011;4369;47.842;13.096;2022-08-19T14:23:12;10.87;;;9.77;;
8663;SDS011;4369;47.842;13.096;2022-08-19T14:25:39;10.33;;;9.33;;
8663;SDS011;4369;47.842;13.096;2022-08-19T14:28:07;10.87;;;9.77;;
8663;SDS011;4369;47.842;13.096;2022-08-19T14:30:34;11.13;;;10.00;;
8663;SDS011;4369;47.842;13.096;2022-08-19T14:33:03;11.47;;;10.37;;
8663;SDS011;4369;47.842;13.096;2022-08-19T14:35:32;13.10;;;10.77;;
8663;SDS011;4369;47.842;13.096;2022-08-19T14:38:00;12.70;;;11.27;;
8663;SDS011;4369;47.842;13.096;2022-08-19T14:40:28;13.07;;;11.77;;
8663;SDS011;4369;47.842;13.096;2022-08-19T14:42:56;14.07;;;12.53;;
8663;SDS011;4369;47.842;13.096;2022-08-19T14:45:27;12.20;;;11.00;;
8663;SDS011;4369;47.842;13.096;2022-08-19T14:47:55;13.63;;;12.33;;
8663;SDS011;4369;47.842;13.096;2022-08-19T14:50:24;15.30;;;11.53;;
8663;SDS011;4369;47.842;13.096;2022-08-19T14:52:56;12.90;;;11.60;;
8663;SDS011;4369;47.842;13.096;2022-08-19T14:55:24;12.70;;;11.50;;
8663;SDS011;4369;47.842;13.096;2022-08-19T14:57:51;14.10;;;12.60;;
8663;SDS011;4369;47.842;13.096;2022-08-19T15:00:18;13.57;;;12.10;;